sensor_id;sensor_type;location;lat;lon;timestamp;pressure;altitude;pressure_sealevel;temperature;humidity
75604;BME280;64187;51.010;13.792;2023-04-26T00:01:17;100123.53;;;6.63;62.55
75604;BME280;64187;51.010;13.792;2023-04-26T00:06:16;100129.00;;;6.50;62.55
75604;BME280;64187;51.010;13.792;2023-04-26T00:11:15;100132.34;;;6.71;61.65
75604;BME280;64187;51.010;13.792;2023-04-26T00:16:13;100129.41;;;6.54;62.55
75604;BME280;64187;51.010;13.792;2023-04-26T00:21:12;100138.31;;;6.73;62.20
75604;BME280;64187;51.010;13.792;2023-04-26T00:26:11;100142.06;;;6.72;62.60
75604;BME280;64187;51.010;13.792;2023-04-26T00:31:17;100133.53;;;6.56;63.37
75604;BME280;64187;51.010;13.792;2023-04-26T00:36:16;100139.81;;;6.68;63.03
75604;BME280;64187;51.010;13.792;2023-04-26T00:41:17;100148.88;;;6.74;63.16
75604;BME280;64187;51.010;13.792;2023-04-26T00:46:16;100147.28;;;6.66;63.35
75604;BME280;64187;51.010;13.792;2023-04-26T00:51:15;100150.31;;;6.52;64.10
75604;BME280;64187;51.010;13.792;2023-04-26T00:56:15;100149.75;;;6.43;64.45
75604;BME280;64187;51.010;13.792;2023-04-26T01:01:16;100167.53;;;6.44;64.77
75604;BME280;64187;51.010;13.792;2023-04-26T01:06:15;100153.97;;;6.32;64.75
75604;BME280;64187;51.010;13.792;2023-04-26T01:11:16;100164.44;;;6.15;65.35
75604;BME280;64187;51.010;13.792;2023-04-26T01:16:18;100163.44;;;6.10;65.37
75604;BME280;64187;51.010;13.792;2023-04-26T01:21:21;100169.03;;;6.08;65.36
75604;BME280;64187;51.010;13.792;2023-04-26T01:26:20;100157.50;;;6.01;65.70
75604;BME280;64187;51.010;13.792;2023-04-26T01:31:19;100167.03;;;5.97;65.70
75604;BME280;64187;51.010;13.792;2023-04-26T01:36:18;100173.03;;;5.99;65.43
75604;BME280;64187;51.010;13.792;2023-04-26T01:41:17;100171.78;;;5.88;65.34
75604;BME280;64187;51.010;13.792;2023-04-26T01:46:16;100175.91;;;5.91;64.91
75604;BME280;64187;51.010;13.792;2023-04-26T01:51:15;100179.47;;;5.85;65.10
75604;BME280;64187;51.010;13.792;2023-04-26T01:56:14;100177.25;;;5.75;65.51
75604;BME280;64187;51.010;13.792;2023-04-26T02:01:13;100186.16;;;5.69;65.71
75604;BME280;64187;51.010;13.792;2023-04-26T02:06:15;100183.88;;;5.72;65.26
75604;BME280;64187;51.010;13.792;2023-04-26T02:11:15;100186.56;;;5.72;65.51
75604;BME280;64187;51.010;13.792;2023-04-26T02:16:14;100186.56;;;5.72;65.38
75604;BME280;64187;51.010;13.792;2023-04-26T02:21:16;100189.97;;;5.93;64.62
75604;BME280;64187;51.010;13.792;2023-04-26T02:26:18;100188.63;;;5.70;65.04
75604;BME280;64187;51.010;13.792;2023-04-26T02:31:16;100183.25;;;5.70;65.60
75604;BME280;64187;51.010;13.792;2023-04-26T02:36:15;100188.34;;;5.85;65.32
75604;BME280;64187;51.010;13.792;2023-04-26T02:41:14;100180.59;;;5.64;66.19
75604;BME280;64187;51.010;13.792;2023-04-26T02:46:13;100177.16;;;5.50;66.70
75604;BME280;64187;51.010;13.792;2023-04-26T02:51:15;100180.53;;;5.32;67.56
75604;BME280;64187;51.010;13.792;2023-04-26T02:56:13;100178.19;;;5.49;67.54
75604;BME280;64187;51.010;13.792;2023-04-26T03:01:12;100179.59;;;5.58;67.28
75604;BME280;64187;51.010;13.792;2023-04-26T03:06:13;100184.19;;;5.44;67.79
75604;BME280;64187;51.010;13.792;2023-04-26T03:11:12;100193.03;;;5.51;67.34
75604;BME280;64187;51.010;13.792;2023-04-26T03:16:11;100195.34;;;5.41;67.66
75604;BME280;64187;51.010;13.792;2023-04-26T03:21:10;100192.81;;;5.59;67.23
75604;BME280;64187;51.010;13.792;2023-04-26T03:26:09;100196.75;;;5.50;67.63
75604;BME280;64187;51.010;13.792;2023-04-26T03:31:08;100203.63;;;5.39;67.97
75604;BME280;64187;51.010;13.792;2023-04-26T03:36:07;100200.56;;;5.29;68.14
75604;BME280;64187;51.010;13.792;2023-04-26T03:41:07;100205.50;;;5.26;68.01
75604;BME280;64187;51.010;13.792;2023-04-26T03:46:06;100210.81;;;5.39;67.54
75604;BME280;64187;51.010;13.792;2023-04-26T03:51:05;100215.00;;;5.22;67.60
75604;BME280;64187;51.010;13.792;2023-04-26T03:56:04;100225.16;;;5.20;66.94
75604;BME280;64187;51.010;13.792;2023-04-26T04:01:04;100222.06;;;5.09;66.61
75604;BME280;64187;51.010;13.792;2023-04-26T04:06:03;100224.13;;;5.07;66.42
75604;BME280;64187;51.010;13.792;2023-04-26T04:11:02;100227.44;;;5.03;66.72
75604;BME280;64187;51.010;13.792;2023-04-26T04:16:03;100225.16;;;5.00;66.46
75604;BME280;64187;51.010;13.792;2023-04-26T04:21:03;100227.63;;;5.14;66.43
75604;BME280;64187;51.010;13.792;2023-04-26T04:26:02;100229.47;;;5.27;65.89
75604;BME280;64187;51.010;13.792;2023-04-26T04:31:01;100233.59;;;5.23;65.44
75604;BME280;64187;51.010;13.792;2023-04-26T04:36:00;100236.31;;;5.10;66.16
75604;BME280;64187;51.010;13.792;2023-04-26T04:40:59;100242.72;;;7.69;66.37
75604;BME280;64187;51.010;13.792;2023-04-26T04:45:58;100239.09;;;8.24;71.61
75604;BME280;64187;51.010;13.792;2023-04-26T04:50:56;100247.19;;;9.08;60.41
75604;BME280;64187;51.010;13.792;2023-04-26T04:55:56;100247.56;;;9.87;58.66
75604;BME280;64187;51.010;13.792;2023-04-26T05:00:55;100252.81;;;9.18;58.07
75604;BME280;64187;51.010;13.792;2023-04-26T05:05:59;100252.22;;;9.40;57.86
75604;BME280;64187;51.010;13.792;2023-04-26T05:10:59;100249.38;;;9.58;70.88
75604;BME280;64187;51.010;13.792;2023-04-26T05:15:59;100255.28;;;8.43;54.85
75604;BME280;64187;51.010;13.792;2023-04-26T05:20:58;100271.72;;;7.05;58.17
75604;BME280;64187;51.010;13.792;2023-04-26T05:26:00;100274.22;;;6.82;59.56
75604;BME280;64187;51.010;13.792;2023-04-26T05:31:28;100273.31;;;6.31;60.83
75604;BME280;64187;51.010;13.792;2023-04-26T05:36:48;100280.97;;;6.28;61.44
75604;BME280;64187;51.010;13.792;2023-04-26T05:41:47;100285.72;;;6.64;60.55
75604;BME280;64187;51.010;13.792;2023-04-26T05:46:46;100297.09;;;6.66;60.53
75604;BME280;64187;51.010;13.792;2023-04-26T05:51:45;100294.34;;;6.73;60.16
75604;BME280;64187;51.010;13.792;2023-04-26T05:56:44;100296.81;;;6.42;61.06
75604;BME280;64187;51.010;13.792;2023-04-26T06:01:43;100296.47;;;6.32;61.98
75604;BME280;64187;51.010;13.792;2023-04-26T06:06:42;100303.78;;;6.50;61.62
75604;BME280;64187;51.010;13.792;2023-04-26T06:11:41;100305.41;;;6.26;62.54
75604;BME280;64187;51.010;13.792;2023-04-26T06:16:40;100295.41;;;6.72;61.30
75604;BME280;64187;51.010;13.792;2023-04-26T06:21:41;100300.50;;;6.48;61.81
75604;BME280;64187;51.010;13.792;2023-04-26T06:26:40;100294.88;;;7.13;59.60
75604;BME280;64187;51.010;13.792;2023-04-26T06:31:39;100309.81;;;6.84;59.02
75604;BME280;64187;51.010;13.792;2023-04-26T06:36:39;100307.47;;;6.56;60.37
75604;BME280;64187;51.010;13.792;2023-04-26T06:41:38;100311.19;;;6.61;59.82
75604;BME280;64187;51.010;13.792;2023-04-26T06:46:40;100310.56;;;6.91;59.17
75604;BME280;64187;51.010;13.792;2023-04-26T06:51:39;100313.00;;;7.43;57.09
75604;BME280;64187;51.010;13.792;2023-04-26T06:56:38;100315.47;;;7.01;58.15
75604;BME280;64187;51.010;13.792;2023-04-26T07:01:37;100321.03;;;7.49;57.20
75604;BME280;64187;51.010;13.792;2023-04-26T07:06:37;100326.19;;;6.76;57.47
75604;BME280;64187;51.010;13.792;2023-04-26T07:11:37;100319.81;;;7.02;56.65
75604;BME280;64187;51.010;13.792;2023-04-26T07:16:35;100315.78;;;6.54;57.16
75604;BME280;64187;51.010;13.792;2023-04-26T07:21:34;100327.84;;;7.08;56.26
75604;BME280;64187;51.010;13.792;2023-04-26T07:26:34;100326.06;;;6.96;55.10
75604;BME280;64187;51.010;13.792;2023-04-26T07:31:34;100325.25;;;7.64;53.83
75604;BME280;64187;51.010;13.792;2023-04-26T07:36:33;100329.25;;;7.98;53.49
75604;BME280;64187;51.010;13.792;2023-04-26T07:41:32;100331.66;;;7.19;50.60
75604;BME280;64187;51.010;13.792;2023-04-26T07:46:34;100323.41;;;6.89;53.49
75604;BME280;64187;51.010;13.792;2023-04-26T07:51:34;100325.34;;;7.75;51.46
75604;BME280;64187;51.010;13.792;2023-04-26T07:56:34;100322.41;;;7.77;49.61
75604;BME280;64187;51.010;13.792;2023-04-26T08:01:33;100321.66;;;7.70;48.94
75604;BME280;64187;51.010;13.792;2023-04-26T08:06:31;100314.03;;;8.04;48.94
75604;BME280;64187;51.010;13.792;2023-04-26T08:11:30;100310.47;;;9.12;47.15
75604;BME280;64187;51.010;13.792;2023-04-26T08:16:30;100324.59;;;8.72;46.57
75604;BME280;64187;51.010;13.792;2023-04-26T08:21:29;100327.97;;;7.82;48.46
75604;BME280;64187;51.010;13.792;2023-04-26T08:26:29;100336.19;;;7.69;48.76
75604;BME280;64187;51.010;13.792;2023-04-26T08:31:28;100342.19;;;7.89;49.90
75604;BME280;64187;51.010;13.792;2023-04-26T08:36:27;100332.84;;;8.59;48.22
75604;BME280;64187;51.010;13.792;2023-04-26T08:41:26;100336.53;;;8.65;46.68
75604;BME280;64187;51.010;13.792;2023-04-26T08:46:25;100344.56;;;8.53;44.79
75604;BME280;64187;51.010;13.792;2023-04-26T08:51:26;100335.91;;;8.14;46.25
75604;BME280;64187;51.010;13.792;2023-04-26T08:56:28;100321.72;;;8.55;46.50
75604;BME280;64187;51.010;13.792;2023-04-26T09:01:28;100334.00;;;8.14;46.81
75604;BME280;64187;51.010;13.792;2023-04-26T09:06:28;100327.81;;;8.14;45.18
75604;BME280;64187;51.010;13.792;2023-04-26T09:11:27;100328.06;;;8.12;46.60
75604;BME280;64187;51.010;13.792;2023-04-26T09:16:36;100330.22;;;9.24;45.02
75604;BME280;64187;51.010;13.792;2023-04-26T09:21:41;100320.72;;;9.57;43.02
75604;BME280;64187;51.010;13.792;2023-04-26T09:26:42;100332.63;;;8.60;46.24
75604;BME280;64187;51.010;13.792;2023-04-26T09:31:46;100338.22;;;8.77;44.96
75604;BME280;64187;51.010;13.792;2023-04-26T09:36:54;100324.44;;;9.68;43.75
75604;BME280;64187;51.010;13.792;2023-04-26T09:41:56;100329.75;;;9.39;43.67
75604;BME280;64187;51.010;13.792;2023-04-26T09:47:06;100339.81;;;8.97;45.51
75604;BME280;64187;51.010;13.792;2023-04-26T09:52:07;100345.53;;;8.58;46.67
75604;BME280;64187;51.010;13.792;2023-04-26T09:57:06;100339.59;;;8.68;47.23
75604;BME280;64187;51.010;13.792;2023-04-26T10:02:25;100336.47;;;8.83;45.64
75604;BME280;64187;51.010;13.792;2023-04-26T10:07:25;100331.16;;;9.30;43.05
75604;BME280;64187;51.010;13.792;2023-04-26T10:12:24;100333.75;;;9.60;42.76
75604;BME280;64187;51.010;13.792;2023-04-26T10:17:22;100333.25;;;9.99;43.61
75604;BME280;64187;51.010;13.792;2023-04-26T10:22:28;100331.75;;;9.67;42.73
75604;BME280;64187;51.010;13.792;2023-04-26T10:48:14;100335.44;;;8.96;42.56
75604;BME280;64187;51.010;13.792;2023-04-26T10:53:17;100328.31;;;9.13;43.11
75604;BME280;64187;51.010;13.792;2023-04-26T10:58:29;100322.56;;;9.68;43.11
75604;BME280;64187;51.010;13.792;2023-04-26T11:03:29;100327.75;;;9.46;41.21
75604;BME280;64187;51.010;13.792;2023-04-26T11:08:29;100320.78;;;10.38;40.57
75604;BME280;64187;51.010;13.792;2023-04-26T11:13:43;100323.03;;;9.89;41.02
75604;BME280;64187;51.010;13.792;2023-04-26T11:18:44;100320.34;;;9.77;39.36
75604;BME280;64187;51.010;13.792;2023-04-26T11:23:54;100320.34;;;9.18;40.43
75604;BME280;64187;51.010;13.792;2023-04-26T11:28:53;100327.88;;;9.40;40.99
75604;BME280;64187;51.010;13.792;2023-04-26T11:33:52;100329.97;;;9.61;41.00
75604;BME280;64187;51.010;13.792;2023-04-26T11:38:51;100325.88;;;10.34;39.96
75604;BME280;64187;51.010;13.792;2023-04-26T11:43:51;100339.31;;;10.18;37.10
75604;BME280;64187;51.010;13.792;2023-04-26T11:48:51;100327.94;;;10.04;36.24
75604;BME280;64187;51.010;13.792;2023-04-26T11:53:50;100330.69;;;9.68;37.62
75604;BME280;64187;51.010;13.792;2023-04-26T11:58:51;100349.94;;;9.25;40.62
75604;BME280;64187;51.010;13.792;2023-04-26T12:03:52;100340.66;;;9.68;40.51
75604;BME280;64187;51.010;13.792;2023-04-26T12:08:52;100358.97;;;9.31;41.33
75604;BME280;64187;51.010;13.792;2023-04-26T12:13:51;100366.84;;;9.20;42.46
75604;BME280;64187;51.010;13.792;2023-04-26T12:18:50;100355.81;;;9.34;42.18
75604;BME280;64187;51.010;13.792;2023-04-26T12:23:52;100356.31;;;9.54;42.36
75604;BME280;64187;51.010;13.792;2023-04-26T12:28:51;100343.28;;;10.27;41.51
75604;BME280;64187;51.010;13.792;2023-04-26T12:33:50;100347.47;;;9.70;41.57
75604;BME280;64187;51.010;13.792;2023-04-26T12:38:49;100349.53;;;10.16;42.56
75604;BME280;64187;51.010;13.792;2023-04-26T12:43:48;100345.19;;;10.14;40.88
75604;BME280;64187;51.010;13.792;2023-04-26T12:48:47;100347.25;;;10.76;39.81
75604;BME280;64187;51.010;13.792;2023-04-26T12:53:45;100344.81;;;10.92;39.02
75604;BME280;64187;51.010;13.792;2023-04-26T12:58:45;100341.97;;;9.77;40.11
75604;BME280;64187;51.010;13.792;2023-04-26T13:03:44;100344.78;;;9.82;40.00
75604;BME280;64187;51.010;13.792;2023-04-26T13:08:43;100347.22;;;10.07;40.34
75604;BME280;64187;51.010;13.792;2023-04-26T13:13:42;100346.88;;;9.92;40.36
75604;BME280;64187;51.010;13.792;2023-04-26T13:18:42;100346.88;;;10.04;38.44
75604;BME280;64187;51.010;13.792;2023-04-26T13:23:41;100334.75;;;10.06;39.00
75604;BME280;64187;51.010;13.792;2023-04-26T13:28:40;100337.50;;;10.23;38.32
75604;BME280;64187;51.010;13.792;2023-04-26T13:33:39;100342.34;;;10.33;38.42
75604;BME280;64187;51.010;13.792;2023-04-26T13:38:38;100323.47;;;10.95;38.57
75604;BME280;64187;51.010;13.792;2023-04-26T13:43:38;100330.00;;;10.83;38.77
75604;BME280;64187;51.010;13.792;2023-04-26T13:48:36;100330.41;;;10.74;39.61
75604;BME280;64187;51.010;13.792;2023-04-26T13:53:35;100335.31;;;10.08;40.53
75604;BME280;64187;51.010;13.792;2023-04-26T13:58:34;100344.50;;;10.07;40.38
75604;BME280;64187;51.010;13.792;2023-04-26T14:03:34;100346.41;;;9.95;40.29
75604;BME280;64187;51.010;13.792;2023-04-26T14:08:33;100347.47;;;9.94;40.48
75604;BME280;64187;51.010;13.792;2023-04-26T14:13:34;100350.03;;;10.01;39.54
75604;BME280;64187;51.010;13.792;2023-04-26T14:18:33;100356.13;;;10.20;39.40
75604;BME280;64187;51.010;13.792;2023-04-26T14:23:32;100354.22;;;10.44;38.90
75604;BME280;64187;51.010;13.792;2023-04-26T14:28:31;100348.19;;;10.70;37.97
75604;BME280;64187;51.010;13.792;2023-04-26T14:33:30;100350.22;;;10.34;38.50
75604;BME280;64187;51.010;13.792;2023-04-26T14:38:29;100360.63;;;9.90;39.52
75604;BME280;64187;51.010;13.792;2023-04-26T14:43:29;100355.78;;;10.28;38.84
75604;BME280;64187;51.010;13.792;2023-04-26T14:48:28;100356.50;;;10.00;40.04
75604;BME280;64187;51.010;13.792;2023-04-26T14:53:26;100352.44;;;10.95;38.68
75604;BME280;64187;51.010;13.792;2023-04-26T14:58:25;100350.13;;;10.58;38.64
75604;BME280;64187;51.010;13.792;2023-04-26T15:03:24;100364.78;;;10.45;39.02
75604;BME280;64187;51.010;13.792;2023-04-26T15:08:24;100366.59;;;10.28;39.12
75604;BME280;64187;51.010;13.792;2023-04-26T15:13:24;100359.00;;;10.01;40.34
75604;BME280;64187;51.010;13.792;2023-04-26T15:18:23;100357.44;;;10.29;39.89
75604;BME280;64187;51.010;13.792;2023-04-26T15:23:22;100354.94;;;10.39;40.13
75604;BME280;64187;51.010;13.792;2023-04-26T15:28:21;100359.53;;;10.39;40.15
75604;BME280;64187;51.010;13.792;2023-04-26T15:33:20;100360.44;;;10.44;39.84
75604;BME280;64187;51.010;13.792;2023-04-26T15:38:18;100368.63;;;9.85;41.03
75604;BME280;64187;51.010;13.792;2023-04-26T15:43:17;100365.22;;;10.02;41.21
75604;BME280;64187;51.010;13.792;2023-04-26T15:48:17;100366.44;;;10.46;41.23
75604;BME280;64187;51.010;13.792;2023-04-26T15:53:15;100372.66;;;10.47;40.44
75604;BME280;64187;51.010;13.792;2023-04-26T15:58:15;100371.06;;;10.34;41.04
75604;BME280;64187;51.010;13.792;2023-04-26T16:03:14;100363.22;;;10.09;41.05
75604;BME280;64187;51.010;13.792;2023-04-26T16:08:14;100365.44;;;10.12;41.18
75604;BME280;64187;51.010;13.792;2023-04-26T16:13:30;100360.56;;;10.26;40.78
75604;BME280;64187;51.010;13.792;2023-04-26T16:18:31;100360.81;;;10.24;40.18
75604;BME280;64187;51.010;13.792;2023-04-26T16:23:30;100368.94;;;10.24;40.83
75604;BME280;64187;51.010;13.792;2023-04-26T16:28:29;100365.44;;;10.00;41.43
75604;BME280;64187;51.010;13.792;2023-04-26T16:33:28;100361.22;;;9.81;41.83
75604;BME280;64187;51.010;13.792;2023-04-26T16:38:27;100367.34;;;9.53;41.48
75604;BME280;64187;51.010;13.792;2023-04-26T16:43:27;100373.31;;;9.19;41.43
75604;BME280;64187;51.010;13.792;2023-04-26T16:48:26;100374.44;;;9.12;41.10
75604;BME280;64187;51.010;13.792;2023-04-26T16:53:26;100372.97;;;9.39;40.86
75604;BME280;64187;51.010;13.792;2023-04-26T16:58:25;100373.22;;;9.49;41.17
75604;BME280;64187;51.010;13.792;2023-04-26T17:03:24;100374.88;;;9.62;41.26
75604;BME280;64187;51.010;13.792;2023-04-26T17:08:23;100383.22;;;9.49;42.14
75604;BME280;64187;51.010;13.792;2023-04-26T17:13:23;100382.97;;;9.86;41.71
75604;BME280;64187;51.010;13.792;2023-04-26T17:18:26;100384.69;;;10.16;40.96
75604;BME280;64187;51.010;13.792;2023-04-26T17:23:26;100383.22;;;9.73;41.60
75604;BME280;64187;51.010;13.792;2023-04-26T17:28:25;100392.50;;;9.77;41.80
75604;BME280;64187;51.010;13.792;2023-04-26T17:33:24;100396.72;;;9.73;42.18
75604;BME280;64187;51.010;13.792;2023-04-26T17:38:23;100398.03;;;9.82;42.09
75604;BME280;64187;51.010;13.792;2023-04-26T17:43:22;100400.94;;;9.68;42.62
75604;BME280;64187;51.010;13.792;2023-04-26T17:48:21;100392.84;;;9.57;43.23
75604;BME280;64187;51.010;13.792;2023-04-26T17:53:20;100400.25;;;9.73;43.21
75604;BME280;64187;51.010;13.792;2023-04-26T17:58:20;100400.50;;;9.60;43.63
75604;BME280;64187;51.010;13.792;2023-04-26T18:03:19;100406.84;;;9.89;43.20
75604;BME280;64187;51.010;13.792;2023-04-26T18:08:18;100408.97;;;9.87;43.47
75604;BME280;64187;51.010;13.792;2023-04-26T18:13:18;100414.94;;;9.77;43.27
75604;BME280;64187;51.010;13.792;2023-04-26T18:18:17;100412.00;;;9.67;42.99
75604;BME280;64187;51.010;13.792;2023-04-26T18:23:16;100421.06;;;9.49;43.56
75604;BME280;64187;51.010;13.792;2023-04-26T18:28:16;100428.44;;;9.42;44.09
75604;BME280;64187;51.010;13.792;2023-04-26T18:33:14;100423.22;;;9.28;44.29
75604;BME280;64187;51.010;13.792;2023-04-26T18:38:14;100429.44;;;9.17;44.89
75604;BME280;64187;51.010;13.792;2023-04-26T18:43:13;100436.53;;;9.12;45.30
75604;BME280;64187;51.010;13.792;2023-04-26T18:48:11;100442.81;;;9.24;45.00
75604;BME280;64187;51.010;13.792;2023-04-26T18:53:10;100446.19;;;9.08;45.59
75604;BME280;64187;51.010;13.792;2023-04-26T18:58:09;100447.31;;;9.00;46.42
75604;BME280;64187;51.010;13.792;2023-04-26T19:03:08;100446.50;;;9.30;45.71
75604;BME280;64187;51.010;13.792;2023-04-26T19:08:08;100451.22;;;9.34;46.92
75604;BME280;64187;51.010;13.792;2023-04-26T19:13:06;100461.69;;;9.12;48.53
75604;BME280;64187;51.010;13.792;2023-04-26T19:18:05;100460.63;;;9.13;49.19
75604;BME280;64187;51.010;13.792;2023-04-26T19:23:04;100464.63;;;9.53;48.93
75604;BME280;64187;51.010;13.792;2023-04-26T19:28:03;100458.88;;;9.49;49.05
75604;BME280;64187;51.010;13.792;2023-04-26T19:33:02;100465.69;;;9.21;50.14
75604;BME280;64187;51.010;13.792;2023-04-26T19:38:01;100469.19;;;9.10;50.68
75604;BME280;64187;51.010;13.792;2023-04-26T19:43:02;100475.06;;;9.07;52.08
75604;BME280;64187;51.010;13.792;2023-04-26T19:48:01;100477.25;;;8.98;52.60
75604;BME280;64187;51.010;13.792;2023-04-26T19:53:00;100482.19;;;9.01;53.03
75604;BME280;64187;51.010;13.792;2023-04-26T19:58:00;100473.19;;;8.89;53.28
75604;BME280;64187;51.010;13.792;2023-04-26T20:02:58;100474.19;;;8.76;53.59
75604;BME280;64187;51.010;13.792;2023-04-26T20:07:58;100474.44;;;8.56;55.26
75604;BME280;64187;51.010;13.792;2023-04-26T20:12:56;100475.13;;;8.27;55.77
75604;BME280;64187;51.010;13.792;2023-04-26T20:17:56;100472.94;;;8.17;56.68
75604;BME280;64187;51.010;13.792;2023-04-26T20:22:55;100468.41;;;7.92;57.64
75604;BME280;64187;51.010;13.792;2023-04-26T20:27:54;100470.25;;;8.17;57.19
75604;BME280;64187;51.010;13.792;2023-04-26T20:32:54;100469.84;;;8.20;57.49
75604;BME280;64187;51.010;13.792;2023-04-26T20:37:53;100471.50;;;7.71;58.55
75604;BME280;64187;51.010;13.792;2023-04-26T20:42:52;100470.94;;;7.87;58.29
75604;BME280;64187;51.010;13.792;2023-04-26T20:47:50;100474.81;;;7.48;59.21
75604;BME280;64187;51.010;13.792;2023-04-26T20:52:49;100474.63;;;6.66;61.47
75604;BME280;64187;51.010;13.792;2023-04-26T20:57:48;100471.88;;;6.73;61.74
75604;BME280;64187;51.010;13.792;2023-04-26T21:02:47;100463.06;;;6.59;61.95
75604;BME280;64187;51.010;13.792;2023-04-26T21:07:47;100462.31;;;6.18;63.56
75604;BME280;64187;51.010;13.792;2023-04-26T21:12:46;100464.63;;;6.08;64.37
75604;BME280;64187;51.010;13.792;2023-04-26T21:17:44;100473.53;;;5.95;65.26
75604;BME280;64187;51.010;13.792;2023-04-26T21:22:43;100477.94;;;6.61;61.70
75604;BME280;64187;51.010;13.792;2023-04-26T21:27:42;100482.00;;;6.19;63.74
75604;BME280;64187;51.010;13.792;2023-04-26T21:32:41;100485.69;;;5.78;64.27
75604;BME280;64187;51.010;13.792;2023-04-26T21:37:40;100489.63;;;5.75;64.14
75604;BME280;64187;51.010;13.792;2023-04-26T21:42:39;100496.63;;;5.50;64.79
75604;BME280;64187;51.010;13.792;2023-04-26T21:47:39;100500.56;;;5.74;63.34
75604;BME280;64187;51.010;13.792;2023-04-26T21:52:39;100506.75;;;5.61;64.83
75604;BME280;64187;51.010;13.792;2023-04-26T21:57:38;100510.66;;;5.38;65.25
75604;BME280;64187;51.010;13.792;2023-04-26T22:02:36;100514.09;;;5.19;66.22
75604;BME280;64187;51.010;13.792;2023-04-26T22:07:37;100516.75;;;5.06;66.41
75604;BME280;64187;51.010;13.792;2023-04-26T22:12:35;100516.94;;;5.04;66.37
75604;BME280;64187;51.010;13.792;2023-04-26T22:17:34;100523.53;;;5.02;66.48
75604;BME280;64187;51.010;13.792;2023-04-26T22:22:33;100526.78;;;4.84;67.63
75604;BME280;64187;51.010;13.792;2023-04-26T22:27:32;100533.72;;;4.71;67.63
75604;BME280;64187;51.010;13.792;2023-04-26T22:32:31;100531.19;;;4.98;66.39
75604;BME280;64187;51.010;13.792;2023-04-26T22:37:30;100535.22;;;4.81;67.07
75604;BME280;64187;51.010;13.792;2023-04-26T22:42:29;100538.19;;;4.92;66.45
75604;BME280;64187;51.010;13.792;2023-04-26T22:47:31;100536.53;;;4.98;66.52
75604;BME280;64187;51.010;13.792;2023-04-26T22:52:30;100543.75;;;4.56;67.77
75604;BME280;64187;51.010;13.792;2023-04-26T22:57:30;100543.47;;;4.44;68.42
75604;BME280;64187;51.010;13.792;2023-04-26T23:02:29;100555.16;;;4.65;67.85
75604;BME280;64187;51.010;13.792;2023-04-26T23:07:28;100548.75;;;4.66;67.62
75604;BME280;64187;51.010;13.792;2023-04-26T23:12:26;100559.19;;;4.82;66.82
75604;BME280;64187;51.010;13.792;2023-04-26T23:17:26;100558.63;;;4.59;67.12
75604;BME280;64187;51.010;13.792;2023-04-26T23:22:26;100551.28;;;4.39;68.10
75604;BME280;64187;51.010;13.792;2023-04-26T23:27:25;100554.28;;;4.23;68.50
75604;BME280;64187;51.010;13.792;2023-04-26T23:32:24;100555.44;;;4.14;69.14
75604;BME280;64187;51.010;13.792;2023-04-26T23:37:23;100567.34;;;4.39;68.55
75604;BME280;64187;51.010;13.792;2023-04-26T23:42:22;100561.47;;;4.22;68.69
75604;BME280;64187;51.010;13.792;2023-04-26T23:47:21;100558.69;;;4.09;68.42
75604;BME280;64187;51.010;13.792;2023-04-26T23:52:20;100554.44;;;3.72;70.79
75604;BME280;64187;51.010;13.792;2023-04-26T23:57:19;100554.84;;;3.90;70.43
